createdAt,value
2016-11-20T20:48:28.762Z,999.32
2016-11-20T20:49:29.358Z,999.32
2016-11-20T20:50:29.967Z,999.35
2016-11-20T20:51:30.638Z,999.36
2016-11-20T20:52:31.247Z,999.38
2016-11-20T20:53:31.878Z,999.4
2016-11-20T20:54:32.487Z,999.38
2016-11-20T20:55:33.141Z,999.42
2016-11-20T20:56:33.749Z,999.45
2016-11-20T20:57:34.372Z,999.43
2016-11-20T20:58:34.980Z,999.49
2016-11-20T20:59:35.651Z,999.57
2016-11-20T21:00:36.263Z,999.61
2016-11-20T21:01:36.865Z,999.61
2016-11-20T21:02:37.467Z,999.67
2016-11-20T21:03:38.064Z,999.72
2016-11-20T21:04:38.775Z,999.67
2016-11-20T21:05:39.371Z,999.68
2016-11-20T21:06:39.989Z,999.74
2016-11-20T21:07:41.398Z,999.71
2016-11-20T21:08:42.031Z,999.72
2016-11-20T21:09:42.649Z,999.71
2016-11-20T21:10:43.300Z,999.73
2016-11-20T21:11:43.964Z,999.68
2016-11-20T21:12:44.583Z,999.72
2016-11-20T21:13:45.196Z,999.73
2016-11-20T21:14:45.823Z,999.69
2016-11-20T21:15:46.544Z,999.71
2016-11-20T21:16:47.191Z,999.73
2016-11-20T21:17:47.813Z,999.73
2016-11-20T21:18:48.421Z,999.79
2016-11-20T21:19:49.046Z,999.8
2016-11-20T21:20:49.732Z,999.84
2016-11-20T21:21:50.348Z,999.79
2016-11-20T21:22:50.998Z,999.81
2016-11-20T21:23:51.712Z,999.87
2016-11-20T21:24:52.357Z,999.85
2016-11-20T21:25:52.964Z,999.85
2016-11-20T21:26:53.653Z,999.78
2016-11-20T21:27:54.299Z,999.82
2016-11-20T21:28:54.954Z,999.8
2016-11-20T21:29:55.575Z,999.9
2016-11-20T21:30:56.204Z,999.87
2016-11-20T21:31:56.832Z,999.92
2016-11-20T21:32:57.476Z,999.94
2016-11-20T21:33:58.215Z,999.99
2016-11-20T21:34:58.826Z,1000
2016-11-20T21:35:59.491Z,1000.04
2016-11-20T21:37:00.097Z,1000.02
2016-11-20T21:38:00.703Z,1000.07
2016-11-20T21:39:01.379Z,1000.07
2016-11-20T21:40:02.015Z,1000.11
2016-11-20T21:41:02.636Z,1000.06
2016-11-20T21:42:03.540Z,1000.1
2016-11-20T21:43:04.177Z,1000.08
2016-11-20T21:44:04.783Z,1000.14
2016-11-20T21:45:05.390Z,1000.18
2016-11-20T21:46:06.077Z,1000.16
2016-11-20T21:47:06.775Z,1000.21
2016-11-20T21:48:07.456Z,1000.33
2016-11-20T21:49:08.339Z,1000.36
2016-11-20T21:50:08.836Z,1000.37
2016-11-20T21:51:09.526Z,1000.36
2016-11-20T21:52:10.166Z,1000.39
2016-11-20T21:53:10.824Z,1000.3
2016-11-20T21:54:11.468Z,1000.33
2016-11-20T21:55:12.184Z,1000.29
2016-11-20T21:56:12.779Z,1000.36
2016-11-20T21:57:13.425Z,1000.35
2016-11-20T21:58:14.190Z,1000.38
2016-11-20T21:59:14.791Z,1000.45
2016-11-20T22:00:15.479Z,1000.45
2016-11-20T22:01:16.102Z,1000.48
2016-11-20T22:02:16.763Z,1000.48
2016-11-20T22:03:17.427Z,1000.46
2016-11-20T22:04:18.110Z,1000.49
2016-11-20T22:05:18.764Z,1000.54
2016-11-20T22:06:19.407Z,1000.56
2016-11-20T22:07:20.078Z,1000.62
2016-11-20T22:08:20.744Z,1000.67
2016-11-20T22:09:21.420Z,1000.7
2016-11-20T22:10:22.076Z,1000.77
2016-11-20T22:11:22.779Z,1000.73
2016-11-20T22:12:23.408Z,1000.76
2016-11-20T22:13:24.049Z,1000.86
2016-11-20T22:14:24.703Z,1000.86
2016-11-20T22:15:25.355Z,1000.92
2016-11-20T22:16:26.051Z,1001.01
2016-11-20T22:17:26.694Z,1001.01
2016-11-20T22:18:27.328Z,1001.06
2016-11-20T22:19:28.011Z,1001.1
2016-11-20T22:20:28.648Z,1001.11
2016-11-20T22:21:29.280Z,1001.13
2016-11-20T22:22:29.959Z,1001.12
2016-11-20T22:23:30.591Z,1001.17
2016-11-20T22:24:31.275Z,1001.21
2016-11-20T22:25:31.965Z,1001.16
2016-11-20T22:26:32.850Z,1001.28
2016-11-20T22:27:33.468Z,1001.28
2016-11-20T22:28:34.119Z,1001.36
2016-11-20T22:29:34.814Z,1001.36
2016-11-20T22:30:35.559Z,1001.37
2016-11-20T22:31:36.211Z,1001.38
2016-11-20T22:32:36.881Z,1001.4
2016-11-20T22:33:37.525Z,1001.4
2016-11-20T22:34:38.176Z,1001.4
2016-11-20T22:35:38.859Z,1001.42
2016-11-20T22:36:39.530Z,1001.44
2016-11-20T22:37:40.218Z,1001.45
2016-11-20T22:38:40.982Z,1001.42
2016-11-20T22:39:41.670Z,1001.55
2016-11-20T22:40:42.357Z,1001.58
2016-11-20T22:41:43.952Z,1001.54
2016-11-20T22:42:44.677Z,1001.57
2016-11-20T22:43:45.285Z,1001.56
2016-11-20T22:44:45.975Z,1001.62
2016-11-20T22:45:46.656Z,1001.58
2016-11-20T22:46:47.309Z,1001.63
2016-11-20T22:47:48.039Z,1001.65
2016-11-20T22:48:48.701Z,1001.68
2016-11-20T22:49:49.404Z,1001.69
2016-11-20T22:50:50.164Z,1001.74
2016-11-20T22:51:50.842Z,1001.71
2016-11-20T22:52:51.463Z,1001.73
2016-11-20T22:53:52.107Z,1001.79
2016-11-20T22:54:52.730Z,1001.77
2016-11-20T22:55:53.345Z,1001.81
2016-11-20T22:56:53.988Z,1001.85
2016-11-20T22:57:54.630Z,1001.8
2016-11-20T22:58:55.654Z,1001.82
2016-11-20T22:59:56.290Z,1001.76
2016-11-20T23:00:56.919Z,1001.68
2016-11-20T23:01:57.572Z,1001.72
2016-11-20T23:02:58.184Z,1001.7
2016-11-20T23:03:58.798Z,1001.71
2016-11-20T23:04:59.403Z,1001.71
2016-11-20T23:06:00.031Z,1001.79
2016-11-20T23:07:00.650Z,1001.7
2016-11-20T23:08:01.283Z,1001.75
2016-11-20T23:09:01.893Z,1001.7
2016-11-20T23:10:02.531Z,1001.72
2016-11-20T23:11:03.200Z,1001.79
2016-11-20T23:12:03.850Z,1001.85
2016-11-20T23:13:04.483Z,1001.86
2016-11-20T23:14:05.102Z,1001.9
2016-11-20T23:15:05.751Z,1001.9
2016-11-20T23:16:06.379Z,1001.97
2016-11-20T23:17:06.991Z,1001.95
2016-11-20T23:18:07.610Z,1002.06
2016-11-20T23:19:08.232Z,1002.08
2016-11-20T23:20:09.563Z,1002.1
2016-11-20T23:21:10.249Z,1002.04
2016-11-20T23:22:10.848Z,1001.97
2016-11-20T23:23:11.483Z,1002.02
2016-11-20T23:24:12.093Z,1002.08
2016-11-20T23:25:12.708Z,1002.17
2016-11-20T23:26:13.347Z,1002.13
2016-11-20T23:27:13.948Z,1002.07
2016-11-20T23:28:14.567Z,1002.19
2016-11-20T23:29:15.266Z,1002.17
2016-11-20T23:30:15.883Z,1002.15
2016-11-20T23:31:16.544Z,1002.17
2016-11-20T23:32:17.117Z,1002.15
2016-11-20T23:33:17.738Z,1002.14
2016-11-20T23:34:18.369Z,1002.13
2016-11-20T23:35:18.989Z,1002.17
2016-11-20T23:36:19.610Z,1002.21
2016-11-20T23:37:20.226Z,1002.23
2016-11-20T23:38:20.887Z,1002.18
2016-11-20T23:39:21.533Z,1002.16
2016-11-20T23:40:22.177Z,1002.21
2016-11-20T23:41:22.844Z,1002.27
2016-11-20T23:42:23.587Z,1002.28
2016-11-20T23:43:24.208Z,1002.24
2016-11-20T23:44:24.851Z,1002.18
2016-11-20T23:45:25.528Z,1002.15
2016-11-20T23:46:26.183Z,1002.06
2016-11-20T23:47:26.829Z,1002.05
2016-11-20T23:48:27.475Z,1002.02
2016-11-20T23:49:28.119Z,1001.98
2016-11-20T23:50:28.800Z,1001.99
2016-11-20T23:51:29.453Z,1001.98
2016-11-20T23:52:30.079Z,1001.97
2016-11-20T23:53:30.751Z,1001.97
2016-11-20T23:54:31.403Z,1001.94
2016-11-20T23:55:32.026Z,1002
2016-11-20T23:56:32.642Z,1002.08
2016-11-20T23:57:33.260Z,1002.03
2016-11-20T23:58:33.895Z,1002.04
2016-11-20T23:59:34.504Z,1002.06
